St Thomas, Virgin Islands
Current Conditions -  °F | °C
As of 9:00 PM on Tuesday 21 Oct 2014 (Local Time) from TUPJ Reporting Station
Few Clouds Few Clouds  
Wind Chill: 81°   Ceiling: Unl
Heat Index: 85°   Visibility: 6mi
Dew Point: 73°   Wind: 7mph
Humidity: 79%   Direction: 100°E
Pressure: 29.94"   Gusts: NA
Location:  18.3436°N, 64.9322°W
Report Text: TUPJ 220100Z 10006KT 9999 FEW022 27/23 Q1014 RMK A2997
Loading
Personal Weather Stations






























Interactive Weather Map
Tropical Storm Tracking
New forecast layout! Learn more

10-Day Weather Forecast

Advertisements
Track Severe Weather on mobile